Nearby METAR Reports

 

KSLC - Salt Lake City, Utah, USA
Distance from station: W 19mi, 31km
Updated: Wed, 22-Nov-2017 5:54pm MST
Mostly cloudy
Mostly cloudy
 Wind from WNW
Wind: WNW 6 mph , 9 km/h
Temperature: 55°F , 13°C
Dew Point: 43°F , 6°C
Humidity: 63%
Barometer: 30.37 inHg , 1028.4 hPa
Clouds: Mostly cloudy
Visibility: 10 miles , 16 km
Cloud details: Few Clouds 7500 ft
Mostly cloudy 18000 ft
Mostly cloudy 24000 ft
2017/11/23 00:54 KSLC 230054Z 29005KT 10SM FEW075 BKN180 BKN240 13/06 A3037 RMK AO2 SLP269 T01280061
K36U - Heber/Russ Mcdon, Utah, USA
Distance from station: SSE 21mi, 34km
Updated: Wed, 11-Oct-2017 6:50pm MDT
NOT Current
Clear
Clear
 Wind from SSW
Wind: SSW 10 mph , 17 km/h, Gust: 18 mph , 30 km/h
Temperature: 63°F , 17°C
Dew Point: 16°F , -9°C
Humidity: 16%
Barometer: 29.87 inHg , 1011.5 hPa
Clouds: Clear
Visibility: 10 miles , 16 km
2017/10/12 00:50 K36U 120050Z AUTO 21009G16KT 10SM CLR 17/M09 A2987 RMK AO2
 
KHIF - Hill Afb/Ogden, Utah, USA
Distance from station: NW 31mi, 50km
Updated: Wed, 22-Nov-2017 5:58pm MST
Clear
Clear
 Wind from N
Wind: N 3 mph , 6 km/h
Temperature: 52°F , 11°C
Dew Point: 43°F , 6°C
Humidity: 72%
Barometer: 30.38 inHg , 1028.8 hPa
Clouds: Clear
Visibility: 10 miles , 16 km
2017/11/23 00:58 KHIF 230058Z AUTO 35003KT 10SM CLR 11/06 A3038 RMK AO2 SLP268 T01140061
KOGD - Ogden, Utah, USA
Distance from station: NW 37mi, 60km
Updated: Wed, 22-Nov-2017 5:53pm MST
Clear
Clear
 Wind from calm
Wind: Calm
Temperature: 52°F , 11°C
Dew Point: 43°F , 6°C
Humidity: 72%
Barometer: 30.37 inHg , 1028.4 hPa
Clouds: Clear
Visibility: 10 miles , 16 km
2017/11/23 00:53 KOGD 230053Z 00000KT 10SM CLR 11/06 A3037 RMK AO2 SLP269 T01060056
 
KPVU - Provo Muni, Utah, USA
Distance from station: S 38mi, 61km
Updated: Wed, 22-Nov-2017 5:56pm MST
Mostly cloudy
Mostly cloudy
 Wind from calm
Wind: Calm
Temperature: 48°F , 9°C
Dew Point: 37°F , 3°C
Humidity: 66%
Barometer: 30.40 inHg , 1029.5 hPa
Clouds: Mostly cloudy
Visibility: 10 miles , 16 km
Cloud details: Few Clouds 8000 ft
Mostly cloudy 20000 ft
2017/11/23 00:56 KPVU 230056Z 00000KT 10SM FEW080 BKN200 09/03 A3040 RMK AO2 SLP295 T00890033
KEVW - Evanston, Wyoming, USA
Distance from station: NE 46mi, 74km
Updated: Wed, 22-Nov-2017 5:53pm MST
Clear
Clear
 Wind from SW
Wind: SW 10 mph , 17 km/h
Temperature: 46°F , 8°C
Wind Chill: 41°F , 5°C
Dew Point: 39°F , 4°C
Humidity: 76%
Barometer: 30.46 inHg , 1031.5 hPa
Clouds: Clear
Visibility: 10 miles , 16 km
2017/11/23 00:53 KEVW 230053Z AUTO 23009KT 10SM CLR 08/04 A3046 RMK AO2 SLP282 T00830039